sensor_id;sensor_type;location;lat;lon;timestamp;pressure;altitude;pressure_sealevel;temperature
69420;BMP280;56612;52.030;113.524;2023-03-03T00:01:17;93278.97;;;-0.72
69420;BMP280;56612;52.030;113.524;2023-03-03T00:04:20;93275.78;;;-0.71
69420;BMP280;56612;52.030;113.524;2023-03-03T00:07:23;93293.41;;;-0.62
69420;BMP280;56612;52.030;113.524;2023-03-03T00:10:27;93299.97;;;-0.51
69420;BMP280;56612;52.030;113.524;2023-03-03T00:13:31;93302.25;;;-0.45
69420;BMP280;56612;52.030;113.524;2023-03-03T00:16:37;93300.06;;;-0.49
69420;BMP280;56612;52.030;113.524;2023-03-03T00:19:40;93307.19;;;-0.40
69420;BMP280;56612;52.030;113.524;2023-03-03T00:22:46;93305.50;;;-0.35
69420;BMP280;56612;52.030;113.524;2023-03-03T00:25:50;93306.56;;;-0.28
69420;BMP280;56612;52.030;113.524;2023-03-03T00:28:55;93314.13;;;-0.23
69420;BMP280;56612;52.030;113.524;2023-03-03T00:35:31;93320.97;;;0.04
69420;BMP280;56612;52.030;113.524;2023-03-03T00:38:40;93324.38;;;0.06
69420;BMP280;56612;52.030;113.524;2023-03-03T00:41:44;93342.94;;;0.20
69420;BMP280;56612;52.030;113.524;2023-03-03T00:44:57;93339.28;;;0.25
69420;BMP280;56612;52.030;113.524;2023-03-03T00:48:20;93340.19;;;0.41
69420;BMP280;56612;52.030;113.524;2023-03-03T00:51:27;93339.00;;;0.54
69420;BMP280;56612;52.030;113.524;2023-03-03T00:54:32;93344.94;;;0.54
69420;BMP280;56612;52.030;113.524;2023-03-03T00:57:36;93354.06;;;0.53
69420;BMP280;56612;52.030;113.524;2023-03-03T01:00:43;93354.91;;;0.79
69420;BMP280;56612;52.030;113.524;2023-03-03T01:03:49;93365.41;;;0.79
69420;BMP280;56612;52.030;113.524;2023-03-03T01:06:52;93364.75;;;0.91
69420;BMP280;56612;52.030;113.524;2023-03-03T01:09:56;93366.53;;;1.46
69420;BMP280;56612;52.030;113.524;2023-03-03T01:13:01;93365.75;;;2.06
69420;BMP280;56612;52.030;113.524;2023-03-03T01:16:05;93368.25;;;2.55
69420;BMP280;56612;52.030;113.524;2023-03-03T01:19:08;93377.06;;;3.01
69420;BMP280;56612;52.030;113.524;2023-03-03T01:22:11;93374.09;;;3.50
69420;BMP280;56612;52.030;113.524;2023-03-03T01:25:14;93385.03;;;3.85
69420;BMP280;56612;52.030;113.524;2023-03-03T01:28:18;93379.38;;;4.07
69420;BMP280;56612;52.030;113.524;2023-03-03T01:31:22;93386.13;;;4.26
69420;BMP280;56612;52.030;113.524;2023-03-03T01:34:25;93385.47;;;4.41
69420;BMP280;56612;52.030;113.524;2023-03-03T01:37:29;93383.66;;;4.45
69420;BMP280;56612;52.030;113.524;2023-03-03T01:40:33;93386.06;;;4.55
69420;BMP280;56612;52.030;113.524;2023-03-03T01:43:46;93392.97;;;5.09
69420;BMP280;56612;52.030;113.524;2023-03-03T01:50:16;93392.66;;;5.86
69420;BMP280;56612;52.030;113.524;2023-03-03T01:53:33;93406.00;;;6.44
69420;BMP280;56612;52.030;113.524;2023-03-03T01:56:38;93404.31;;;6.72
69420;BMP280;56612;52.030;113.524;2023-03-03T01:59:46;93394.28;;;7.08
69420;BMP280;56612;52.030;113.524;2023-03-03T02:02:52;93396.09;;;7.45
69420;BMP280;56612;52.030;113.524;2023-03-03T02:05:58;93388.97;;;7.95
69420;BMP280;56612;52.030;113.524;2023-03-03T02:09:37;93387.66;;;8.44
69420;BMP280;56612;52.030;113.524;2023-03-03T02:15:46;93373.06;;;8.71
69420;BMP280;56612;52.030;113.524;2023-03-03T02:18:50;93376.06;;;9.11
69420;BMP280;56612;52.030;113.524;2023-03-03T02:21:54;93381.16;;;9.59
69420;BMP280;56612;52.030;113.524;2023-03-03T02:25:01;93384.13;;;10.03
69420;BMP280;56612;52.030;113.524;2023-03-03T02:28:05;93376.84;;;10.06
69420;BMP280;56612;52.030;113.524;2023-03-03T02:31:13;93374.97;;;10.12
69420;BMP280;56612;52.030;113.524;2023-03-03T02:34:18;93377.25;;;10.26
69420;BMP280;56612;52.030;113.524;2023-03-03T02:37:22;93382.28;;;10.12
69420;BMP280;56612;52.030;113.524;2023-03-03T02:40:27;93381.31;;;9.65
69420;BMP280;56612;52.030;113.524;2023-03-03T02:44:00;93383.06;;;9.54
69420;BMP280;56612;52.030;113.524;2023-03-03T02:47:02;93380.00;;;9.66
69420;BMP280;56612;52.030;113.524;2023-03-03T02:50:06;93382.63;;;9.64
69420;BMP280;56612;52.030;113.524;2023-03-03T02:53:10;93380.91;;;10.09
69420;BMP280;56612;52.030;113.524;2023-03-03T02:56:13;93395.59;;;10.42
69420;BMP280;56612;52.030;113.524;2023-03-03T02:59:18;93390.09;;;10.70
69420;BMP280;56612;52.030;113.524;2023-03-03T03:02:23;93388.56;;;10.97
69420;BMP280;56612;52.030;113.524;2023-03-03T03:05:27;93400.44;;;11.74
69420;BMP280;56612;52.030;113.524;2023-03-03T03:08:31;93396.63;;;12.39
69420;BMP280;56612;52.030;113.524;2023-03-03T03:11:34;93406.66;;;13.05
69420;BMP280;56612;52.030;113.524;2023-03-03T03:14:38;93405.25;;;13.93
69420;BMP280;56612;52.030;113.524;2023-03-03T03:17:41;93408.25;;;14.70
69420;BMP280;56612;52.030;113.524;2023-03-03T03:20:46;93410.28;;;15.24
69420;BMP280;56612;52.030;113.524;2023-03-03T03:23:49;93412.25;;;15.68
69420;BMP280;56612;52.030;113.524;2023-03-03T03:26:53;93404.09;;;16.11
69420;BMP280;56612;52.030;113.524;2023-03-03T03:29:57;93406.91;;;15.48
69420;BMP280;56612;52.030;113.524;2023-03-03T03:33:02;93401.44;;;15.97
69420;BMP280;56612;52.030;113.524;2023-03-03T03:36:05;93408.19;;;15.94
69420;BMP280;56612;52.030;113.524;2023-03-03T03:39:08;93403.09;;;16.71
69420;BMP280;56612;52.030;113.524;2023-03-03T03:42:16;93404.81;;;17.17
69420;BMP280;56612;52.030;113.524;2023-03-03T03:45:20;93388.06;;;17.74
69420;BMP280;56612;52.030;113.524;2023-03-03T03:48:24;93396.03;;;17.86
69420;BMP280;56612;52.030;113.524;2023-03-03T03:51:28;93396.31;;;18.19
69420;BMP280;56612;52.030;113.524;2023-03-03T03:54:33;93391.47;;;18.32
69420;BMP280;56612;52.030;113.524;2023-03-03T03:57:36;93389.72;;;18.59
69420;BMP280;56612;52.030;113.524;2023-03-03T04:00:41;93395.22;;;18.98
69420;BMP280;56612;52.030;113.524;2023-03-03T04:03:44;93391.53;;;18.75
69420;BMP280;56612;52.030;113.524;2023-03-03T04:06:52;93388.03;;;18.80
69420;BMP280;56612;52.030;113.524;2023-03-03T04:09:55;93389.66;;;19.08
69420;BMP280;56612;52.030;113.524;2023-03-03T04:12:58;93385.34;;;18.83
69420;BMP280;56612;52.030;113.524;2023-03-03T04:16:01;93377.69;;;18.95
69420;BMP280;56612;52.030;113.524;2023-03-03T04:19:05;93386.53;;;20.07
69420;BMP280;56612;52.030;113.524;2023-03-03T04:22:11;93379.38;;;21.39
69420;BMP280;56612;52.030;113.524;2023-03-03T04:25:16;93384.75;;;21.41
69420;BMP280;56612;52.030;113.524;2023-03-03T04:28:20;93376.44;;;21.72
69420;BMP280;56612;52.030;113.524;2023-03-03T04:31:24;93380.59;;;21.17
69420;BMP280;56612;52.030;113.524;2023-03-03T04:34:29;93370.25;;;20.07
69420;BMP280;56612;52.030;113.524;2023-03-03T04:37:32;93370.56;;;19.53
69420;BMP280;56612;52.030;113.524;2023-03-03T04:40:40;93367.25;;;18.20
69420;BMP280;56612;52.030;113.524;2023-03-03T04:43:45;93363.91;;;17.56
69420;BMP280;56612;52.030;113.524;2023-03-03T04:46:48;93368.84;;;16.47
69420;BMP280;56612;52.030;113.524;2023-03-03T04:49:52;93364.78;;;17.36
69420;BMP280;56612;52.030;113.524;2023-03-03T04:52:55;93356.44;;;19.84
69420;BMP280;56612;52.030;113.524;2023-03-03T04:55:59;93355.53;;;21.67
69420;BMP280;56612;52.030;113.524;2023-03-03T04:59:03;93348.41;;;21.53
69420;BMP280;56612;52.030;113.524;2023-03-03T05:02:07;93345.00;;;16.84
69420;BMP280;56612;52.030;113.524;2023-03-03T05:05:10;93338.63;;;13.69
69420;BMP280;56612;52.030;113.524;2023-03-03T05:08:15;93339.16;;;12.58
69420;BMP280;56612;52.030;113.524;2023-03-03T05:11:18;93325.88;;;12.06
69420;BMP280;56612;52.030;113.524;2023-03-03T05:14:21;93328.94;;;11.82
69420;BMP280;56612;52.030;113.524;2023-03-03T05:17:25;93319.44;;;11.69
69420;BMP280;56612;52.030;113.524;2023-03-03T05:20:28;93321.13;;;11.46
69420;BMP280;56612;52.030;113.524;2023-03-03T05:23:31;93320.91;;;11.34
69420;BMP280;56612;52.030;113.524;2023-03-03T05:26:34;93321.50;;;11.24
69420;BMP280;56612;52.030;113.524;2023-03-03T05:29:38;93322.63;;;11.13
69420;BMP280;56612;52.030;113.524;2023-03-03T05:32:42;93313.34;;;11.18
69420;BMP280;56612;52.030;113.524;2023-03-03T05:35:52;93314.06;;;11.21
69420;BMP280;56612;52.030;113.524;2023-03-03T05:38:55;93309.53;;;11.32
69420;BMP280;56612;52.030;113.524;2023-03-03T05:41:58;93298.91;;;11.36
69420;BMP280;56612;52.030;113.524;2023-03-03T05:45:02;93298.28;;;11.39
69420;BMP280;56612;52.030;113.524;2023-03-03T05:48:05;93303.72;;;11.45
69420;BMP280;56612;52.030;113.524;2023-03-03T05:51:08;93309.19;;;11.55
69420;BMP280;56612;52.030;113.524;2023-03-03T05:54:11;93306.66;;;11.66
69420;BMP280;56612;52.030;113.524;2023-03-03T05:57:14;93323.81;;;16.24
69420;BMP280;56612;52.030;113.524;2023-03-03T06:00:18;93325.00;;;18.86
69420;BMP280;56612;52.030;113.524;2023-03-03T06:03:22;93325.47;;;20.94
69420;BMP280;56612;52.030;113.524;2023-03-03T06:06:25;93326.03;;;22.87
69420;BMP280;56612;52.030;113.524;2023-03-03T06:09:29;93320.84;;;23.95
69420;BMP280;56612;52.030;113.524;2023-03-03T06:12:33;93327.22;;;25.25
69420;BMP280;56612;52.030;113.524;2023-03-03T06:15:36;93327.81;;;25.28
69420;BMP280;56612;52.030;113.524;2023-03-03T06:18:39;93312.72;;;20.60
69420;BMP280;56612;52.030;113.524;2023-03-03T06:21:42;93312.88;;;18.38
69420;BMP280;56612;52.030;113.524;2023-03-03T06:24:45;93331.88;;;22.09
69420;BMP280;56612;52.030;113.524;2023-03-03T06:27:48;93326.56;;;24.41
69420;BMP280;56612;52.030;113.524;2023-03-03T06:30:54;93330.16;;;22.43
69420;BMP280;56612;52.030;113.524;2023-03-03T06:33:59;93308.91;;;19.17
69420;BMP280;56612;52.030;113.524;2023-03-03T06:37:02;93313.75;;;17.10
69420;BMP280;56612;52.030;113.524;2023-03-03T06:40:06;93324.97;;;18.45
69420;BMP280;56612;52.030;113.524;2023-03-03T06:43:10;93323.50;;;23.41
69420;BMP280;56612;52.030;113.524;2023-03-03T06:46:14;93323.00;;;25.28
69420;BMP280;56612;52.030;113.524;2023-03-03T06:49:17;93330.56;;;25.28
69420;BMP280;56612;52.030;113.524;2023-03-03T06:52:24;93319.28;;;22.20
69420;BMP280;56612;52.030;113.524;2023-03-03T06:55:27;93331.47;;;23.85
69420;BMP280;56612;52.030;113.524;2023-03-03T06:58:30;93324.63;;;23.09
69420;BMP280;56612;52.030;113.524;2023-03-03T07:01:38;93334.81;;;22.01
69420;BMP280;56612;52.030;113.524;2023-03-03T07:04:41;93330.91;;;22.18
69420;BMP280;56612;52.030;113.524;2023-03-03T07:07:44;93332.22;;;19.76
69420;BMP280;56612;52.030;113.524;2023-03-03T07:10:49;93340.59;;;20.87
69420;BMP280;56612;52.030;113.524;2023-03-03T07:13:54;93329.16;;;19.92
69420;BMP280;56612;52.030;113.524;2023-03-03T07:17:04;93328.75;;;18.64
69420;BMP280;56612;52.030;113.524;2023-03-03T07:20:39;93338.28;;;21.99
69420;BMP280;56612;52.030;113.524;2023-03-03T07:23:44;93338.50;;;21.16
69420;BMP280;56612;52.030;113.524;2023-03-03T07:26:47;93340.59;;;21.66
69420;BMP280;56612;52.030;113.524;2023-03-03T07:29:53;93349.41;;;22.59
69420;BMP280;56612;52.030;113.524;2023-03-03T07:32:58;93353.88;;;23.10
69420;BMP280;56612;52.030;113.524;2023-03-03T07:36:03;93359.81;;;24.48
69420;BMP280;56612;52.030;113.524;2023-03-03T07:39:24;93349.56;;;24.30
69420;BMP280;56612;52.030;113.524;2023-03-03T07:42:38;93338.69;;;25.13
69420;BMP280;56612;52.030;113.524;2023-03-03T07:45:50;93336.16;;;24.24
69420;BMP280;56612;52.030;113.524;2023-03-03T07:48:57;93337.78;;;24.69
69420;BMP280;56612;52.030;113.524;2023-03-03T07:52:01;93335.97;;;24.63
69420;BMP280;56612;52.030;113.524;2023-03-03T07:55:30;93329.69;;;23.58
69420;BMP280;56612;52.030;113.524;2023-03-03T07:58:39;93327.69;;;22.57
69420;BMP280;56612;52.030;113.524;2023-03-03T08:01:45;93340.69;;;22.09
69420;BMP280;56612;52.030;113.524;2023-03-03T08:04:50;93325.91;;;21.30
69420;BMP280;56612;52.030;113.524;2023-03-03T08:11:20;93333.19;;;22.97
69420;BMP280;56612;52.030;113.524;2023-03-03T08:14:27;93327.63;;;23.01
69420;BMP280;56612;52.030;113.524;2023-03-03T08:17:35;93333.06;;;23.22
69420;BMP280;56612;52.030;113.524;2023-03-03T08:21:01;93326.13;;;24.18
69420;BMP280;56612;52.030;113.524;2023-03-03T08:24:05;93326.28;;;23.00
69420;BMP280;56612;52.030;113.524;2023-03-03T08:27:08;93324.19;;;19.70
69420;BMP280;56612;52.030;113.524;2023-03-03T08:30:11;93333.00;;;17.43
69420;BMP280;56612;52.030;113.524;2023-03-03T08:33:15;93333.56;;;17.53
69420;BMP280;56612;52.030;113.524;2023-03-03T08:36:18;93337.81;;;20.89
69420;BMP280;56612;52.030;113.524;2023-03-03T08:39:22;93336.53;;;22.78
69420;BMP280;56612;52.030;113.524;2023-03-03T08:42:25;93336.78;;;23.12
69420;BMP280;56612;52.030;113.524;2023-03-03T08:45:28;93336.25;;;20.98
69420;BMP280;56612;52.030;113.524;2023-03-03T08:48:31;93350.28;;;22.31
69420;BMP280;56612;52.030;113.524;2023-03-03T08:51:35;93342.00;;;22.99
69420;BMP280;56612;52.030;113.524;2023-03-03T08:54:38;93339.22;;;22.14
69420;BMP280;56612;52.030;113.524;2023-03-03T08:57:43;93336.06;;;22.06
69420;BMP280;56612;52.030;113.524;2023-03-03T09:00:46;93344.19;;;22.51
69420;BMP280;56612;52.030;113.524;2023-03-03T09:03:53;93343.34;;;22.57
69420;BMP280;56612;52.030;113.524;2023-03-03T09:06:56;93332.94;;;21.72
69420;BMP280;56612;52.030;113.524;2023-03-03T09:10:00;93336.22;;;21.52
69420;BMP280;56612;52.030;113.524;2023-03-03T09:13:10;93335.94;;;22.10
69420;BMP280;56612;52.030;113.524;2023-03-03T09:16:15;93339.22;;;22.14
69420;BMP280;56612;52.030;113.524;2023-03-03T09:19:31;93341.31;;;21.64
69420;BMP280;56612;52.030;113.524;2023-03-03T09:22:39;93350.97;;;21.07
69420;BMP280;56612;52.030;113.524;2023-03-03T09:25:42;93347.06;;;20.71
69420;BMP280;56612;52.030;113.524;2023-03-03T09:28:48;93344.72;;;17.82
69420;BMP280;56612;52.030;113.524;2023-03-03T09:31:53;93338.06;;;15.98
69420;BMP280;56612;52.030;113.524;2023-03-03T09:35:31;93337.63;;;14.94
69420;BMP280;56612;52.030;113.524;2023-03-03T09:38:43;93338.81;;;14.12
69420;BMP280;56612;52.030;113.524;2023-03-03T09:45:25;93348.56;;;13.44
69420;BMP280;56612;52.030;113.524;2023-03-03T09:51:53;93350.31;;;12.35
69420;BMP280;56612;52.030;113.524;2023-03-03T09:55:19;93355.31;;;12.04
69420;BMP280;56612;52.030;113.524;2023-03-03T10:06:02;93348.16;;;11.20
69420;BMP280;56612;52.030;113.524;2023-03-03T10:12:32;93351.69;;;10.91
69420;BMP280;56612;52.030;113.524;2023-03-03T10:23:13;93355.41;;;10.38
69420;BMP280;56612;52.030;113.524;2023-03-03T10:30:06;93358.72;;;10.00
69420;BMP280;56612;52.030;113.524;2023-03-03T10:33:25;93365.63;;;9.79
69420;BMP280;56612;52.030;113.524;2023-03-03T10:53:26;93392.44;;;9.00
69420;BMP280;56612;52.030;113.524;2023-03-03T11:23:45;93415.59;;;8.19
69420;BMP280;56612;52.030;113.524;2023-03-03T11:27:31;93418.78;;;8.14
69420;BMP280;56612;52.030;113.524;2023-03-03T11:37:38;93426.00;;;8.11
69420;BMP280;56612;52.030;113.524;2023-03-03T11:40:58;93418.47;;;8.04
69420;BMP280;56612;52.030;113.524;2023-03-03T11:44:08;93426.09;;;7.91
69420;BMP280;56612;52.030;113.524;2023-03-03T11:47:28;93431.91;;;7.86
69420;BMP280;56612;52.030;113.524;2023-03-03T11:50:49;93427.53;;;7.73
69420;BMP280;56612;52.030;113.524;2023-03-03T11:54:16;93427.44;;;7.49
69420;BMP280;56612;52.030;113.524;2023-03-03T11:57:34;93429.09;;;7.38
69420;BMP280;56612;52.030;113.524;2023-03-03T12:00:50;93428.84;;;7.30
69420;BMP280;56612;52.030;113.524;2023-03-03T12:04:11;93424.41;;;7.17
69420;BMP280;56612;52.030;113.524;2023-03-03T12:17:23;93429.53;;;6.71
69420;BMP280;56612;52.030;113.524;2023-03-03T12:20:41;93445.16;;;6.63
69420;BMP280;56612;52.030;113.524;2023-03-03T12:33:53;93429.88;;;6.44
69420;BMP280;56612;52.030;113.524;2023-03-03T12:40:20;93434.38;;;6.39
69420;BMP280;56612;52.030;113.524;2023-03-03T12:47:03;93427.84;;;6.24
69420;BMP280;56612;52.030;113.524;2023-03-03T12:56:40;93427.78;;;6.22
69420;BMP280;56612;52.030;113.524;2023-03-03T13:00:20;93406.72;;;6.09
69420;BMP280;56612;52.030;113.524;2023-03-03T13:07:03;93422.28;;;5.98
69420;BMP280;56612;52.030;113.524;2023-03-03T13:10:17;93420.06;;;5.93
69420;BMP280;56612;52.030;113.524;2023-03-03T13:13:42;93412.44;;;5.83
69420;BMP280;56612;52.030;113.524;2023-03-03T13:16:49;93424.53;;;5.70
69420;BMP280;56612;52.030;113.524;2023-03-03T13:19:58;93420.34;;;5.65
69420;BMP280;56612;52.030;113.524;2023-03-03T13:26:30;93427.72;;;5.51
69420;BMP280;56612;52.030;113.524;2023-03-03T13:29:54;93430.09;;;5.43
69420;BMP280;56612;52.030;113.524;2023-03-03T13:36:16;93429.88;;;5.05
69420;BMP280;56612;52.030;113.524;2023-03-03T13:39:22;93428.25;;;4.83
69420;BMP280;56612;52.030;113.524;2023-03-03T13:42:32;93426.22;;;4.81
69420;BMP280;56612;52.030;113.524;2023-03-03T13:52:27;93424.59;;;4.90
69420;BMP280;56612;52.030;113.524;2023-03-03T13:55:38;93431.19;;;4.73
69420;BMP280;56612;52.030;113.524;2023-03-03T13:59:05;93434.97;;;4.38
69420;BMP280;56612;52.030;113.524;2023-03-03T14:02:23;93434.84;;;4.21
69420;BMP280;56612;52.030;113.524;2023-03-03T14:05:40;93431.31;;;4.16
69420;BMP280;56612;52.030;113.524;2023-03-03T14:15:50;93427.69;;;3.94
69420;BMP280;56612;52.030;113.524;2023-03-03T14:19:47;93428.19;;;3.90
69420;BMP280;56612;52.030;113.524;2023-03-03T14:26:07;93421.28;;;3.99
69420;BMP280;56612;52.030;113.524;2023-03-03T14:32:29;93420.88;;;4.04
69420;BMP280;56612;52.030;113.524;2023-03-03T14:35:50;93419.38;;;4.15
69420;BMP280;56612;52.030;113.524;2023-03-03T14:39:22;93423.13;;;4.10
69420;BMP280;56612;52.030;113.524;2023-03-03T14:45:40;93423.63;;;3.63
69420;BMP280;56612;52.030;113.524;2023-03-03T14:48:52;93435.59;;;3.37
69420;BMP280;56612;52.030;113.524;2023-03-03T14:55:35;93427.22;;;3.01
69420;BMP280;56612;52.030;113.524;2023-03-03T14:58:40;93423.53;;;2.92
69420;BMP280;56612;52.030;113.524;2023-03-03T15:01:46;93422.53;;;3.00
69420;BMP280;56612;52.030;113.524;2023-03-03T15:05:26;93424.03;;;3.16
69420;BMP280;56612;52.030;113.524;2023-03-03T15:08:33;93424.63;;;3.29
69420;BMP280;56612;52.030;113.524;2023-03-03T15:11:37;93415.22;;;3.25
69420;BMP280;56612;52.030;113.524;2023-03-03T15:14:44;93404.88;;;3.02
69420;BMP280;56612;52.030;113.524;2023-03-03T15:21:17;93411.41;;;2.87
69420;BMP280;56612;52.030;113.524;2023-03-03T15:35:06;93411.53;;;2.25
69420;BMP280;56612;52.030;113.524;2023-03-03T15:38:32;93413.38;;;2.22
69420;BMP280;56612;52.030;113.524;2023-03-03T16:02:49;93383.72;;;1.85
69420;BMP280;56612;52.030;113.524;2023-03-03T16:06:08;93376.81;;;1.54
69420;BMP280;56612;52.030;113.524;2023-03-03T16:09:38;93379.69;;;1.46
69420;BMP280;56612;52.030;113.524;2023-03-03T16:13:05;93382.31;;;1.35
69420;BMP280;56612;52.030;113.524;2023-03-03T16:20:11;93373.78;;;1.23
69420;BMP280;56612;52.030;113.524;2023-03-03T16:23:38;93372.19;;;1.17
69420;BMP280;56612;52.030;113.524;2023-03-03T16:27:20;93365.78;;;1.09
69420;BMP280;56612;52.030;113.524;2023-03-03T16:30:33;93367.38;;;1.02
69420;BMP280;56612;52.030;113.524;2023-03-03T16:33:56;93370.56;;;0.89
69420;BMP280;56612;52.030;113.524;2023-03-03T16:40:34;93376.25;;;0.62
69420;BMP280;56612;52.030;113.524;2023-03-03T16:43:59;93378.28;;;0.52
69420;BMP280;56612;52.030;113.524;2023-03-03T16:47:28;93370.38;;;0.40
69420;BMP280;56612;52.030;113.524;2023-03-03T16:54:02;93363.06;;;0.39
69420;BMP280;56612;52.030;113.524;2023-03-03T16:57:49;93369.13;;;0.41
69420;BMP280;56612;52.030;113.524;2023-03-03T17:04:43;93346.84;;;-0.03
69420;BMP280;56612;52.030;113.524;2023-03-03T17:14:22;93351.13;;;-0.19
69420;BMP280;56612;52.030;113.524;2023-03-03T17:17:46;93353.88;;;-0.17
69420;BMP280;56612;52.030;113.524;2023-03-03T17:20:59;93350.31;;;-0.21
69420;BMP280;56612;52.030;113.524;2023-03-03T17:24:25;93337.75;;;-0.23
69420;BMP280;56612;52.030;113.524;2023-03-03T17:28:09;93342.56;;;-0.19
69420;BMP280;56612;52.030;113.524;2023-03-03T17:31:44;93338.09;;;-0.28
69420;BMP280;56612;52.030;113.524;2023-03-03T17:38:23;93328.50;;;-0.24
69420;BMP280;56612;52.030;113.524;2023-03-03T17:41:45;93330.50;;;-0.34
69420;BMP280;56612;52.030;113.524;2023-03-03T17:45:18;93330.56;;;-0.44
69420;BMP280;56612;52.030;113.524;2023-03-03T17:48:57;93323.56;;;-0.51
69420;BMP280;56612;52.030;113.524;2023-03-03T17:52:30;93317.13;;;-0.60
69420;BMP280;56612;52.030;113.524;2023-03-03T18:09:34;93325.88;;;-0.88
69420;BMP280;56612;52.030;113.524;2023-03-03T18:22:49;93332.53;;;-1.28
69420;BMP280;56612;52.030;113.524;2023-03-03T18:32:22;93315.75;;;-1.44
69420;BMP280;56612;52.030;113.524;2023-03-03T18:35:32;93313.41;;;-1.50
69420;BMP280;56612;52.030;113.524;2023-03-03T18:38:37;93317.00;;;-1.45
69420;BMP280;56612;52.030;113.524;2023-03-03T18:42:03;93314.63;;;-1.41
69420;BMP280;56612;52.030;113.524;2023-03-03T18:49:03;93299.03;;;-1.39
69420;BMP280;56612;52.030;113.524;2023-03-03T18:52:24;93303.44;;;-1.32
69420;BMP280;56612;52.030;113.524;2023-03-03T18:59:01;93290.47;;;-1.30
69420;BMP280;56612;52.030;113.524;2023-03-03T19:05:45;93293.91;;;-1.37
69420;BMP280;56612;52.030;113.524;2023-03-03T19:08:54;93286.91;;;-1.44
69420;BMP280;56612;52.030;113.524;2023-03-03T19:12:14;93292.97;;;-1.41
69420;BMP280;56612;52.030;113.524;2023-03-03T19:18:57;93273.41;;;-1.50
69420;BMP280;56612;52.030;113.524;2023-03-03T19:22:52;93270.97;;;-1.58
69420;BMP280;56612;52.030;113.524;2023-03-03T19:36:42;93263.34;;;-1.85
69420;BMP280;56612;52.030;113.524;2023-03-03T20:00:52;93241.34;;;-2.20
69420;BMP280;56612;52.030;113.524;2023-03-03T20:07:16;93257.59;;;-2.22
69420;BMP280;56612;52.030;113.524;2023-03-03T20:10:46;93259.94;;;-2.45
69420;BMP280;56612;52.030;113.524;2023-03-03T20:14:06;93246.31;;;-2.53
69420;BMP280;56612;52.030;113.524;2023-03-03T20:37:42;93197.16;;;-2.26
69420;BMP280;56612;52.030;113.524;2023-03-03T20:44:39;93208.97;;;-2.35
69420;BMP280;56612;52.030;113.524;2023-03-03T21:05:13;93164.72;;;-2.91
69420;BMP280;56612;52.030;113.524;2023-03-03T21:08:17;93163.44;;;-3.09
69420;BMP280;56612;52.030;113.524;2023-03-03T21:14:34;93154.34;;;-3.08
69420;BMP280;56612;52.030;113.524;2023-03-03T21:17:37;93153.22;;;-3.44
69420;BMP280;56612;52.030;113.524;2023-03-03T21:20:42;93151.03;;;-3.84
69420;BMP280;56612;52.030;113.524;2023-03-03T21:23:45;93131.41;;;-3.75
69420;BMP280;56612;52.030;113.524;2023-03-03T21:26:57;93151.66;;;-3.56
69420;BMP280;56612;52.030;113.524;2023-03-03T21:30:11;93143.25;;;-3.55
69420;BMP280;56612;52.030;113.524;2023-03-03T21:33:53;93134.34;;;-3.61
69420;BMP280;56612;52.030;113.524;2023-03-03T21:36:58;93131.72;;;-3.52
69420;BMP280;56612;52.030;113.524;2023-03-03T21:40:20;93120.28;;;-3.66
69420;BMP280;56612;52.030;113.524;2023-03-03T21:43:51;93134.69;;;-3.84
69420;BMP280;56612;52.030;113.524;2023-03-03T21:46:55;93116.25;;;-3.96
69420;BMP280;56612;52.030;113.524;2023-03-03T21:50:00;93114.53;;;-4.01
69420;BMP280;56612;52.030;113.524;2023-03-03T21:53:03;93107.72;;;-4.24
69420;BMP280;56612;52.030;113.524;2023-03-03T21:56:07;93125.16;;;-4.26
69420;BMP280;56612;52.030;113.524;2023-03-03T21:59:11;93128.31;;;-4.18
69420;BMP280;56612;52.030;113.524;2023-03-03T22:02:14;93131.75;;;-4.25
69420;BMP280;56612;52.030;113.524;2023-03-03T22:05:18;93131.66;;;-4.44
69420;BMP280;56612;52.030;113.524;2023-03-03T22:08:22;93129.97;;;-4.49
69420;BMP280;56612;52.030;113.524;2023-03-03T22:11:26;93127.63;;;-4.55
69420;BMP280;56612;52.030;113.524;2023-03-03T22:14:30;93126.59;;;-4.60
69420;BMP280;56612;52.030;113.524;2023-03-03T22:17:34;93115.47;;;-4.60
69420;BMP280;56612;52.030;113.524;2023-03-03T22:20:38;93110.66;;;-4.64
69420;BMP280;56612;52.030;113.524;2023-03-03T22:23:42;93106.91;;;-4.53
69420;BMP280;56612;52.030;113.524;2023-03-03T22:26:46;93108.31;;;-4.42
69420;BMP280;56612;52.030;113.524;2023-03-03T22:29:49;93105.84;;;-4.40
69420;BMP280;56612;52.030;113.524;2023-03-03T22:32:52;93086.75;;;-4.43
69420;BMP280;56612;52.030;113.524;2023-03-03T22:35:57;93089.16;;;-4.28
69420;BMP280;56612;52.030;113.524;2023-03-03T22:39:02;93090.28;;;-4.21
69420;BMP280;56612;52.030;113.524;2023-03-03T22:42:05;93105.53;;;-4.17
69420;BMP280;56612;52.030;113.524;2023-03-03T22:45:10;93099.13;;;-4.16
69420;BMP280;56612;52.030;113.524;2023-03-03T22:48:13;93100.66;;;-4.13
69420;BMP280;56612;52.030;113.524;2023-03-03T22:51:18;93103.66;;;-4.17
69420;BMP280;56612;52.030;113.524;2023-03-03T22:54:24;93098.38;;;-4.27
69420;BMP280;56612;52.030;113.524;2023-03-03T22:57:29;93083.69;;;-4.32
69420;BMP280;56612;52.030;113.524;2023-03-03T23:00:33;93082.09;;;-4.44
69420;BMP280;56612;52.030;113.524;2023-03-03T23:03:37;93096.06;;;-4.49
69420;BMP280;56612;52.030;113.524;2023-03-03T23:06:41;93096.78;;;-4.39
69420;BMP280;56612;52.030;113.524;2023-03-03T23:09:46;93081.78;;;-4.48
69420;BMP280;56612;52.030;113.524;2023-03-03T23:12:50;93079.59;;;-4.52
69420;BMP280;56612;52.030;113.524;2023-03-03T23:15:54;93073.19;;;-4.41
69420;BMP280;56612;52.030;113.524;2023-03-03T23:19:02;93063.84;;;-4.44
69420;BMP280;56612;52.030;113.524;2023-03-03T23:22:06;93069.50;;;-4.38
69420;BMP280;56612;52.030;113.524;2023-03-03T23:25:11;93069.41;;;-4.31
69420;BMP280;56612;52.030;113.524;2023-03-03T23:28:15;93071.72;;;-4.35
69420;BMP280;56612;52.030;113.524;2023-03-03T23:31:19;93058.22;;;-4.41
69420;BMP280;56612;52.030;113.524;2023-03-03T23:34:23;93056.44;;;-4.48